createdAt,value
2023-04-10T00:00:33.024Z,99.90
2023-04-10T00:03:02.423Z,99.90
2023-04-10T00:05:29.840Z,99.90
2023-04-10T00:07:57.005Z,99.90
2023-04-10T00:10:26.398Z,99.90
2023-04-10T00:12:54.209Z,99.90
2023-04-10T00:15:21.252Z,99.90
2023-04-10T00:17:50.709Z,99.90
2023-04-10T00:20:17.835Z,99.90
2023-04-10T00:22:44.792Z,99.90
2023-04-10T00:25:11.693Z,99.90
2023-04-10T00:27:38.642Z,99.90
2023-04-10T00:30:06.371Z,99.90
2023-04-10T00:32:33.334Z,99.90
2023-04-10T00:35:00.386Z,99.90
2023-04-10T00:37:27.825Z,99.90
2023-04-10T00:39:54.763Z,99.90
2023-04-10T00:42:21.778Z,99.90
2023-04-10T00:44:48.771Z,99.90
2023-04-10T00:47:16.312Z,99.90
2023-04-10T00:49:44.719Z,99.90
2023-04-10T00:52:12.544Z,99.90
2023-04-10T00:54:40.340Z,99.90
2023-04-10T00:57:07.668Z,99.90
2023-04-10T00:59:35.930Z,99.90
2023-04-10T01:02:03.757Z,99.90
2023-04-10T01:04:32.912Z,99.90
2023-04-10T01:07:05.552Z,99.90
2023-04-10T01:09:39.675Z,99.90
2023-04-10T01:12:13.059Z,99.90
2023-04-10T01:15:02.228Z,99.90
2023-04-10T01:17:36.714Z,99.90
2023-04-10T01:20:16.614Z,99.90
2023-04-10T01:23:02.248Z,99.90
2023-04-10T01:25:52.409Z,99.90
2023-04-10T01:28:19.291Z,99.90
2023-04-10T01:30:52.494Z,99.90
2023-04-10T01:33:22.863Z,99.90
2023-04-10T01:35:53.604Z,99.90
2023-04-10T01:38:24.197Z,99.90
2023-04-10T01:40:53.695Z,99.90
2023-04-10T01:43:21.958Z,99.90
2023-04-10T01:45:51.335Z,99.90
2023-04-10T01:48:19.280Z,99.90
2023-04-10T01:50:47.898Z,99.90
2023-04-10T01:53:16.040Z,99.90
2023-04-10T01:55:43.469Z,99.90
2023-04-10T01:58:11.235Z,99.90
2023-04-10T02:00:43.153Z,99.90
2023-04-10T02:03:11.456Z,99.90
2023-04-10T02:06:08.899Z,99.90
2023-04-10T02:08:40.844Z,99.90
2023-04-10T02:11:16.253Z,99.90
2023-04-10T02:13:43.600Z,99.90
2023-04-10T02:16:14.654Z,99.90
2023-04-10T02:18:42.752Z,99.90
2023-04-10T02:21:10.000Z,99.90
2023-04-10T02:23:37.460Z,99.90
2023-04-10T02:26:10.438Z,99.90
2023-04-10T02:28:40.545Z,99.90
2023-04-10T02:31:08.179Z,99.90
2023-04-10T02:33:35.329Z,99.90
2023-04-10T02:36:02.522Z,99.90
2023-04-10T02:38:29.515Z,99.90
2023-04-10T02:40:56.450Z,99.90
2023-04-10T02:43:23.436Z,99.90
2023-04-10T02:45:50.384Z,99.90
2023-04-10T02:48:17.317Z,99.90
2023-04-10T02:50:46.696Z,99.90
2023-04-10T02:53:17.374Z,99.90
2023-04-10T02:55:44.276Z,99.90
2023-04-10T02:58:13.179Z,99.90
2023-04-10T03:00:41.857Z,99.90
2023-04-10T03:03:08.817Z,99.90
2023-04-10T03:05:36.137Z,99.90
2023-04-10T03:08:03.063Z,99.90
2023-04-10T03:10:29.964Z,99.90
2023-04-10T03:12:56.967Z,99.90
2023-04-10T03:15:23.852Z,99.90
2023-04-10T03:17:50.917Z,99.90
2023-04-10T03:20:17.961Z,99.90
2023-04-10T03:22:44.849Z,99.90
2023-04-10T03:25:11.840Z,99.90
2023-04-10T03:27:39.198Z,99.90
2023-04-10T03:30:07.034Z,99.90
2023-04-10T03:32:33.966Z,99.90
2023-04-10T03:35:01.157Z,99.90
2023-04-10T03:37:28.532Z,99.90
2023-04-10T03:39:55.668Z,99.90
2023-04-10T03:42:22.643Z,99.90
2023-04-10T03:44:49.653Z,99.90
2023-04-10T03:47:16.843Z,99.90
2023-04-10T03:49:43.777Z,99.90
2023-04-10T03:52:10.841Z,99.90
2023-04-10T03:54:37.776Z,99.90
2023-04-10T03:57:05.359Z,99.90
2023-04-10T03:59:38.574Z,99.90
2023-04-10T04:02:07.723Z,99.90
2023-04-10T04:04:35.006Z,99.90
2023-04-10T04:07:01.978Z,99.90
2023-04-10T04:09:28.915Z,99.90
2023-04-10T04:11:56.644Z,99.90
2023-04-10T04:14:24.455Z,99.90
2023-04-10T04:16:51.555Z,99.90
2023-04-10T04:19:18.640Z,99.90
2023-04-10T04:21:45.755Z,99.90
2023-04-10T04:24:12.700Z,99.90
2023-04-10T04:26:40.812Z,99.90
2023-04-10T04:29:07.752Z,99.90
2023-04-10T04:31:34.709Z,99.90
2023-04-10T04:34:02.283Z,99.90
2023-04-10T04:36:29.218Z,99.90
2023-04-10T04:38:56.181Z,99.90
2023-04-10T04:41:23.153Z,99.90
2023-04-10T04:43:53.546Z,99.90
2023-04-10T04:46:20.708Z,99.90
2023-04-10T04:48:47.712Z,99.90
2023-04-10T04:51:14.662Z,99.90
2023-04-10T04:53:41.599Z,99.90
2023-04-10T04:56:08.945Z,99.90
2023-04-10T04:58:35.876Z,99.90
2023-04-10T05:01:02.959Z,99.90
2023-04-10T05:03:30.126Z,99.90
2023-04-10T05:05:57.851Z,99.90
2023-04-10T05:08:24.917Z,99.90
2023-04-10T05:10:52.439Z,99.90
2023-04-10T05:13:19.318Z,99.90
2023-04-10T05:15:46.322Z,99.90
2023-04-10T05:18:14.280Z,99.90
2023-04-10T05:20:41.646Z,99.90
2023-04-10T05:23:08.776Z,98.80
2023-04-10T05:25:36.049Z,97.50
2023-04-10T05:30:35.071Z,92.70
2023-04-10T05:35:53.945Z,93.90
2023-04-10T05:38:32.076Z,91.80
2023-04-10T05:40:59.167Z,88.90
2023-04-10T05:46:13.077Z,83.30
2023-04-10T05:48:40.090Z,78.30
2023-04-10T05:51:07.492Z,80.70
2023-04-10T05:53:34.548Z,78.20
2023-04-10T05:56:02.357Z,77.00
2023-04-10T05:58:29.716Z,80.70
2023-04-10T06:01:15.118Z,76.90
2023-04-10T06:03:42.268Z,77.80
2023-04-10T06:06:09.352Z,82.60
2023-04-10T06:08:36.485Z,79.70
2023-04-10T06:11:03.687Z,79.30
2023-04-10T06:13:30.711Z,80.00
2023-04-10T06:15:57.686Z,79.90
2023-04-10T06:18:24.663Z,80.00
2023-04-10T06:20:51.635Z,82.10
2023-04-10T06:23:18.578Z,82.40
2023-04-10T06:25:45.631Z,85.40
2023-04-10T06:28:12.442Z,83.00
2023-04-10T06:30:39.442Z,84.60
2023-04-10T06:33:06.518Z,77.50
2023-04-10T06:35:34.182Z,76.50
2023-04-10T06:38:01.301Z,75.50
2023-04-10T06:40:29.530Z,75.30
2023-04-10T06:42:57.001Z,75.40
2023-04-10T06:45:23.936Z,74.40
2023-04-10T06:47:51.366Z,73.00
2023-04-10T06:50:18.313Z,71.70
2023-04-10T06:52:46.284Z,69.40
2023-04-10T06:55:13.199Z,70.00
2023-04-10T06:57:40.840Z,67.70
2023-04-10T07:00:09.598Z,68.20
2023-04-10T07:02:36.560Z,69.20
2023-04-10T07:05:03.568Z,68.10
2023-04-10T07:07:30.553Z,66.00
2023-04-10T07:09:58.133Z,65.80
2023-04-10T07:12:25.210Z,67.80
2023-04-10T07:14:52.153Z,65.00
2023-04-10T07:17:19.144Z,65.00
2023-04-10T07:19:46.090Z,66.10
2023-04-10T07:22:13.314Z,66.10
2023-04-10T07:24:40.424Z,65.10
2023-04-10T07:27:07.479Z,64.30
2023-04-10T07:29:34.488Z,62.80
2023-04-10T07:32:01.712Z,63.20
2023-04-10T07:34:28.886Z,63.50
2023-04-10T07:36:55.886Z,59.90
2023-04-10T07:39:22.867Z,60.10
2023-04-10T07:41:49.768Z,59.60
2023-04-10T07:44:17.713Z,57.60
2023-04-10T07:46:44.677Z,58.40
2023-04-10T07:49:12.333Z,58.80
2023-04-10T07:51:39.284Z,59.70
2023-04-10T07:54:06.247Z,59.10
2023-04-10T07:56:33.175Z,61.60
2023-04-10T07:59:03.251Z,60.60
2023-04-10T08:01:30.350Z,62.40
2023-04-10T08:03:57.582Z,62.40
2023-04-10T08:06:24.741Z,64.60
2023-04-10T08:08:52.992Z,65.60
2023-04-10T08:11:40.522Z,66.10
2023-04-10T08:14:07.509Z,64.00
2023-04-10T08:16:36.238Z,65.30
2023-04-10T08:19:03.524Z,64.90
2023-04-10T08:21:32.182Z,66.70
2023-04-10T08:24:03.881Z,70.10
2023-04-10T08:26:31.006Z,71.10
2023-04-10T08:28:59.964Z,70.60
2023-04-10T08:31:28.678Z,70.20
2023-04-10T08:33:57.190Z,68.00
2023-04-10T08:36:24.736Z,66.20
2023-04-10T08:38:51.647Z,65.60
2023-04-10T08:41:19.976Z,65.60
2023-04-10T08:43:47.400Z,65.20
2023-04-10T08:46:15.260Z,66.00
2023-04-10T08:48:58.081Z,66.90
2023-04-10T08:55:35.358Z,67.60
2023-04-10T08:58:02.501Z,66.20
2023-04-10T09:00:31.614Z,65.20
2023-04-10T09:03:00.208Z,67.90
2023-04-10T09:05:28.686Z,67.00
2023-04-10T09:07:55.731Z,67.90
2023-04-10T09:10:23.291Z,66.60
2023-04-10T09:12:50.472Z,66.30
2023-04-10T09:15:17.383Z,66.00
2023-04-10T09:18:03.865Z,66.60
2023-04-10T09:20:41.050Z,65.80
2023-04-10T09:23:31.439Z,66.20
2023-04-10T09:25:58.385Z,67.60
2023-04-10T09:28:25.396Z,69.00
2023-04-10T09:30:52.382Z,70.50
2023-04-10T09:33:30.474Z,69.00
2023-04-10T09:36:01.389Z,65.90
2023-04-10T09:38:28.490Z,69.10
2023-04-10T09:41:08.374Z,65.90
2023-04-10T09:43:35.632Z,68.20
2023-04-10T09:46:02.532Z,66.40
2023-04-10T09:48:29.436Z,66.20
2023-04-10T09:50:56.834Z,72.00
2023-04-10T09:53:23.783Z,71.40
2023-04-10T09:55:51.173Z,68.60
2023-04-10T09:58:19.212Z,71.00
2023-04-10T10:00:47.870Z,68.10
2023-04-10T10:03:19.706Z,66.60
2023-04-10T10:05:51.754Z,65.80
2023-04-10T10:08:18.842Z,64.90
2023-04-10T10:10:54.334Z,66.10
2023-04-10T10:13:42.014Z,67.00
2023-04-10T10:16:31.034Z,67.20
2023-04-10T10:19:03.542Z,67.60
2023-04-10T10:21:34.101Z,70.20
2023-04-10T10:24:02.885Z,64.20
2023-04-10T10:26:32.134Z,66.80
2023-04-10T10:29:03.220Z,65.70
2023-04-10T10:31:33.433Z,66.10
2023-04-10T10:34:11.156Z,65.30
2023-04-10T10:36:39.811Z,69.60
2023-04-10T10:39:31.832Z,64.80
2023-04-10T10:42:29.513Z,64.20
2023-04-10T10:45:19.482Z,62.80
2023-04-10T10:47:50.960Z,63.50
2023-04-10T10:50:18.072Z,63.30
2023-04-10T10:52:49.903Z,64.10
2023-04-10T10:55:22.829Z,65.70
2023-04-10T10:58:01.397Z,65.40
2023-04-10T11:00:51.703Z,64.30
2023-04-10T11:03:18.896Z,63.70
2023-04-10T11:06:02.448Z,64.00
2023-04-10T11:08:47.336Z,63.40
2023-04-10T11:11:25.225Z,64.30
2023-04-10T11:13:58.126Z,63.40
2023-04-10T11:16:44.428Z,64.20
2023-04-10T11:19:16.637Z,63.90
2023-04-10T11:22:02.454Z,63.80
2023-04-10T11:24:30.450Z,64.40
2023-04-10T11:26:57.571Z,62.40
2023-04-10T11:29:27.341Z,61.20
2023-04-10T11:31:59.375Z,62.90
2023-04-10T11:34:31.032Z,62.00
2023-04-10T11:36:58.092Z,62.00
2023-04-10T11:39:27.866Z,61.80
2023-04-10T11:41:57.777Z,61.30
2023-04-10T11:44:32.127Z,62.00
2023-04-10T11:46:59.350Z,62.40
2023-04-10T11:49:28.266Z,61.30
2023-04-10T11:51:55.513Z,61.70
2023-04-10T11:54:24.429Z,62.40
2023-04-10T11:57:03.438Z,62.30
2023-04-10T11:59:32.364Z,61.90
2023-04-10T12:02:15.058Z,62.30
2023-04-10T12:04:44.129Z,62.20
2023-04-10T12:07:11.755Z,62.90
2023-04-10T12:09:38.799Z,62.00
2023-04-10T12:12:07.693Z,62.00
2023-04-10T12:14:40.112Z,63.00
2023-04-10T12:17:08.893Z,63.40
2023-04-10T12:19:36.740Z,62.60
2023-04-10T12:22:03.841Z,63.00
2023-04-10T12:24:51.298Z,64.70
2023-04-10T12:27:23.404Z,63.30
2023-04-10T12:29:52.475Z,63.80
2023-04-10T12:32:20.255Z,62.70
2023-04-10T12:34:57.690Z,62.60
2023-04-10T12:37:54.673Z,62.30
2023-04-10T12:40:21.717Z,63.70
2023-04-10T12:42:48.711Z,63.00
2023-04-10T12:45:15.753Z,62.70
2023-04-10T12:47:53.875Z,64.00
2023-04-10T12:50:21.301Z,63.70
2023-04-10T12:53:03.723Z,64.70
2023-04-10T12:55:31.403Z,64.70
2023-04-10T12:57:58.405Z,63.20
2023-04-10T13:00:26.453Z,63.20
2023-04-10T13:02:53.637Z,62.40
2023-04-10T13:05:21.843Z,62.70
2023-04-10T13:07:52.793Z,62.90
2023-04-10T13:10:20.336Z,63.60
2023-04-10T13:12:47.604Z,62.00
2023-04-10T13:15:14.576Z,63.10
2023-04-10T13:17:41.924Z,62.60
2023-04-10T13:20:11.321Z,62.20
2023-04-10T13:22:38.252Z,61.90
2023-04-10T13:25:05.979Z,62.20
2023-04-10T13:27:32.992Z,61.90
2023-04-10T13:30:00.006Z,61.50
2023-04-10T13:32:27.031Z,62.30
2023-04-10T13:34:54.864Z,62.40
2023-04-10T13:37:21.848Z,62.60
2023-04-10T13:39:48.842Z,62.20
2023-04-10T13:42:15.916Z,62.40
2023-04-10T13:44:42.879Z,61.90
2023-04-10T13:47:09.970Z,62.30
2023-04-10T13:49:36.930Z,62.90
2023-04-10T13:52:03.962Z,62.50
2023-04-10T13:54:30.904Z,63.00
2023-04-10T13:56:59.409Z,61.20
2023-04-10T13:59:26.403Z,61.00
2023-04-10T14:01:53.484Z,61.50
2023-04-10T14:04:20.512Z,60.10
2023-04-10T14:06:48.036Z,61.60
2023-04-10T14:09:16.004Z,61.40
2023-04-10T14:11:42.905Z,60.40
2023-04-10T14:14:09.898Z,60.10
2023-04-10T14:16:36.942Z,60.10
2023-04-10T14:19:03.927Z,60.00
2023-04-10T14:21:31.807Z,61.30
2023-04-10T14:23:59.945Z,60.70
2023-04-10T14:26:27.276Z,61.50
2023-04-10T14:28:54.617Z,61.40
2023-04-10T14:31:22.585Z,60.70
2023-04-10T14:33:49.770Z,60.20
2023-04-10T14:36:16.933Z,61.70
2023-04-10T14:39:04.830Z,61.00
2023-04-10T14:41:31.799Z,61.70
2023-04-10T14:43:58.749Z,61.20
2023-04-10T14:46:25.815Z,61.60
2023-04-10T14:48:52.816Z,62.30
2023-04-10T14:51:19.851Z,63.80
2023-04-10T14:53:46.877Z,61.70
2023-04-10T14:56:14.974Z,61.00
2023-04-10T14:58:43.283Z,61.50
2023-04-10T15:01:12.038Z,61.70
2023-04-10T15:03:39.831Z,61.50
2023-04-10T15:06:07.398Z,61.70
2023-04-10T15:08:34.305Z,60.80
2023-04-10T15:11:02.127Z,62.60
2023-04-10T15:13:29.087Z,62.80
2023-04-10T15:15:56.515Z,61.40
2023-04-10T15:18:25.599Z,61.90
2023-04-10T15:20:56.138Z,61.60
2023-04-10T15:23:23.180Z,62.00
2023-04-10T15:25:51.290Z,63.50
2023-04-10T15:28:18.252Z,62.70
2023-04-10T15:30:45.341Z,62.30
2023-04-10T15:33:12.337Z,62.50
2023-04-10T15:35:39.493Z,62.40
2023-04-10T15:38:06.788Z,64.00
2023-04-10T15:40:36.946Z,63.80
2023-04-10T15:43:03.868Z,64.10
2023-04-10T15:45:30.849Z,64.40
2023-04-10T15:48:01.159Z,64.10
2023-04-10T15:50:28.307Z,64.40
2023-04-10T15:52:55.277Z,64.70
2023-04-10T15:55:22.228Z,65.00
2023-04-10T15:57:49.176Z,64.60
2023-04-10T16:00:16.438Z,64.10
2023-04-10T16:02:43.635Z,65.30
2023-04-10T16:05:10.880Z,65.00
2023-04-10T16:07:39.196Z,66.00
2023-04-10T16:10:06.980Z,66.20
2023-04-10T16:12:38.152Z,65.90
2023-04-10T16:15:08.248Z,66.30
2023-04-10T16:17:35.571Z,67.30
2023-04-10T16:20:08.945Z,67.60
2023-04-10T16:22:36.731Z,67.30
2023-04-10T16:27:35.764Z,67.70
2023-04-10T16:30:02.763Z,68.00
2023-04-10T16:32:31.614Z,68.40
2023-04-10T16:34:59.034Z,68.90
2023-04-10T16:37:26.007Z,69.40
2023-04-10T16:39:52.941Z,69.40
2023-04-10T16:42:19.869Z,69.10
2023-04-10T16:44:46.761Z,69.30
2023-04-10T16:47:14.056Z,69.90
2023-04-10T16:49:45.616Z,70.20
2023-04-10T16:52:13.016Z,71.10
2023-04-10T16:54:40.396Z,71.70
2023-04-10T16:57:07.625Z,71.90
2023-04-10T16:59:34.703Z,72.20
2023-04-10T17:02:01.851Z,73.30
2023-04-10T17:04:29.268Z,73.30
2023-04-10T17:06:56.328Z,73.30
2023-04-10T17:09:23.240Z,73.60
2023-04-10T17:11:53.103Z,74.00
2023-04-10T17:14:20.917Z,75.20
2023-04-10T17:16:47.951Z,75.70
2023-04-10T17:19:15.176Z,75.90
2023-04-10T17:21:42.097Z,76.20
2023-04-10T17:24:09.138Z,76.90
2023-04-10T17:26:36.190Z,77.70
2023-04-10T17:29:03.149Z,78.00
2023-04-10T17:31:31.436Z,78.30
2023-04-10T17:33:58.837Z,78.40
2023-04-10T17:36:26.858Z,79.20
2023-04-10T17:38:54.252Z,80.10
2023-04-10T17:41:21.547Z,80.00
2023-04-10T17:43:48.934Z,79.80
2023-04-10T17:46:16.272Z,81.20
2023-04-10T17:48:44.188Z,82.80
2023-04-10T17:51:11.676Z,84.20
2023-04-10T17:53:38.614Z,84.70
2023-04-10T17:56:05.953Z,84.70
2023-04-10T17:58:32.885Z,85.50
2023-04-10T18:00:59.800Z,88.20
2023-04-10T18:03:26.907Z,90.40
2023-04-10T18:05:53.909Z,91.10
2023-04-10T18:08:20.942Z,91.80
2023-04-10T18:10:48.621Z,92.20
2023-04-10T18:13:15.572Z,92.80
2023-04-10T18:15:42.612Z,93.30
2023-04-10T18:18:09.584Z,93.40
2023-04-10T18:20:36.675Z,94.70
2023-04-10T18:23:04.678Z,95.60
2023-04-10T18:25:31.708Z,95.90
2023-04-10T18:28:13.659Z,96.30
2023-04-10T18:30:42.504Z,97.00
2023-04-10T18:33:11.297Z,97.50
2023-04-10T18:35:38.836Z,98.50
2023-04-10T18:38:05.939Z,99.40
2023-04-10T18:40:34.672Z,99.90
2023-04-10T18:43:01.588Z,99.90
2023-04-10T18:45:28.571Z,99.90
2023-04-10T18:47:55.542Z,99.90
2023-04-10T18:50:22.503Z,99.90
2023-04-10T18:52:49.463Z,99.90
2023-04-10T18:55:16.556Z,99.90
2023-04-10T18:57:43.466Z,99.90
2023-04-10T19:00:11.883Z,99.90
2023-04-10T19:02:39.264Z,99.90
2023-04-10T19:05:06.703Z,99.90
2023-04-10T19:07:33.720Z,99.90
2023-04-10T19:10:00.822Z,99.90
2023-04-10T19:12:27.784Z,99.90
2023-04-10T19:14:54.732Z,99.90
2023-04-10T19:17:24.158Z,99.90
2023-04-10T19:19:53.209Z,99.90
2023-04-10T19:22:20.184Z,99.90
2023-04-10T19:24:47.148Z,99.90
2023-04-10T19:27:14.070Z,99.90
2023-04-10T19:29:41.001Z,99.90
2023-04-10T19:32:10.066Z,99.90
2023-04-10T19:34:37.034Z,99.90
2023-04-10T19:37:04.007Z,99.90
2023-04-10T19:39:31.011Z,99.90
2023-04-10T19:41:58.068Z,99.90
2023-04-10T19:44:25.025Z,99.90
2023-04-10T19:46:51.963Z,99.90
2023-04-10T19:49:19.137Z,99.90
2023-04-10T19:51:46.211Z,99.90
2023-04-10T19:54:13.116Z,99.90
2023-04-10T19:56:40.062Z,99.90
2023-04-10T19:59:07.039Z,99.90
2023-04-10T20:01:34.450Z,99.90
2023-04-10T20:04:01.502Z,99.90
2023-04-10T20:06:28.584Z,99.90
2023-04-10T20:08:55.790Z,99.90
2023-04-10T20:11:23.050Z,99.90
2023-04-10T20:13:49.965Z,99.90
2023-04-10T20:16:30.625Z,99.90
2023-04-10T20:18:57.742Z,99.90
2023-04-10T20:21:24.813Z,99.90
2023-04-10T20:23:51.785Z,99.90
2023-04-10T20:26:19.166Z,99.90
2023-04-10T20:28:46.188Z,99.90
2023-04-10T20:31:13.431Z,99.90
2023-04-10T20:33:41.222Z,99.90
2023-04-10T20:36:08.685Z,99.90
2023-04-10T20:38:35.999Z,99.90
2023-04-10T20:41:03.777Z,99.90
2023-04-10T20:43:30.831Z,99.90
2023-04-10T20:46:06.858Z,99.90
2023-04-10T20:48:34.331Z,99.90
2023-04-10T20:51:01.346Z,99.90
2023-04-10T20:53:29.956Z,99.90
2023-04-10T20:55:56.956Z,99.90
2023-04-10T20:58:23.980Z,99.90
2023-04-10T21:00:54.251Z,99.90
2023-04-10T21:03:21.716Z,99.90
2023-04-10T21:05:49.502Z,99.90
2023-04-10T21:08:17.329Z,99.90
2023-04-10T21:10:44.528Z,99.90
2023-04-10T21:13:14.047Z,99.90
2023-04-10T21:15:42.664Z,99.90
2023-04-10T21:18:10.297Z,99.90
2023-04-10T21:20:37.346Z,99.90
2023-04-10T21:23:04.411Z,99.90
2023-04-10T21:25:33.762Z,99.90
2023-04-10T21:28:01.754Z,99.90
2023-04-10T21:30:29.449Z,99.90
2023-04-10T21:32:56.594Z,99.90
2023-04-10T21:35:24.848Z,99.90
2023-04-10T21:37:57.603Z,99.90
2023-04-10T21:40:25.804Z,99.90
2023-04-10T21:42:54.758Z,99.90
2023-04-10T21:45:22.982Z,99.90
2023-04-10T21:47:49.964Z,99.90
2023-04-10T21:50:17.138Z,99.90
2023-04-10T21:52:44.240Z,99.90
2023-04-10T21:55:11.627Z,99.90
2023-04-10T21:57:38.608Z,99.90
2023-04-10T22:00:06.295Z,99.90
2023-04-10T22:02:33.440Z,99.90
2023-04-10T22:05:00.727Z,99.90
2023-04-10T22:07:27.922Z,99.90
2023-04-10T22:09:55.071Z,99.90
2023-04-10T22:12:22.115Z,99.90
2023-04-10T22:14:49.491Z,99.90
2023-04-10T22:17:16.511Z,99.90
2023-04-10T22:19:43.488Z,99.90
2023-04-10T22:22:10.630Z,99.90
2023-04-10T22:24:37.750Z,99.90
2023-04-10T22:27:04.830Z,99.90
2023-04-10T22:29:33.584Z,99.90
2023-04-10T22:32:00.691Z,99.90
2023-04-10T22:34:27.709Z,99.90
2023-04-10T22:36:54.733Z,99.90
2023-04-10T22:39:21.685Z,99.90
2023-04-10T22:41:48.718Z,99.90
2023-04-10T22:44:16.211Z,99.90
2023-04-10T22:46:43.318Z,99.90
2023-04-10T22:49:10.356Z,99.90
2023-04-10T22:51:37.261Z,99.90
2023-04-10T22:54:04.276Z,99.90
2023-04-10T22:56:31.877Z,99.90
2023-04-10T22:58:58.783Z,99.90
2023-04-10T23:01:25.886Z,99.90
2023-04-10T23:03:53.999Z,99.90
2023-04-10T23:06:21.251Z,99.90
2023-04-10T23:08:48.219Z,99.90
2023-04-10T23:11:15.139Z,99.90
2023-04-10T23:13:43.425Z,99.90
2023-04-10T23:16:11.015Z,99.90
2023-04-10T23:18:39.456Z,99.90
2023-04-10T23:21:07.589Z,99.90
2023-04-10T23:23:34.715Z,99.90
2023-04-10T23:26:01.720Z,99.90
2023-04-10T23:28:28.854Z,99.90
2023-04-10T23:30:55.824Z,99.90
2023-04-10T23:33:22.794Z,99.90
2023-04-10T23:35:49.775Z,99.90
2023-04-10T23:38:16.756Z,99.90
2023-04-10T23:40:43.717Z,99.90
2023-04-10T23:43:10.739Z,99.90
2023-04-10T23:45:37.659Z,99.90
2023-04-10T23:48:04.957Z,99.90
2023-04-10T23:50:31.950Z,99.90
2023-04-10T23:53:00.201Z,99.90
2023-04-10T23:55:27.369Z,99.90
2023-04-10T23:57:54.347Z,99.90
